createdAt,value
2023-03-08T18:21:54.066Z,14.70
2023-03-08T18:24:21.810Z,14.70
2023-03-08T18:26:48.720Z,14.70
2023-03-08T18:29:19.013Z,14.70
2023-03-08T18:31:46.909Z,14.70
2023-03-08T18:34:13.839Z,14.70
2023-03-08T18:36:41.126Z,14.70
2023-03-08T18:39:12.114Z,14.70
2023-03-08T18:41:39.404Z,14.70
2023-03-08T18:44:06.431Z,14.70
2023-03-08T18:46:34.060Z,14.70
2023-03-08T18:49:07.044Z,14.70
2023-03-08T18:51:36.480Z,14.70
2023-03-08T18:54:03.910Z,14.70
2023-03-08T18:56:31.459Z,14.70
2023-03-08T18:59:00.687Z,14.70
2023-03-08T19:01:30.422Z,14.70
2023-03-08T19:04:03.984Z,14.70
2023-03-08T19:06:30.952Z,14.70
2023-03-08T19:08:57.963Z,14.70
2023-03-08T19:11:27.034Z,14.80
2023-03-08T19:13:54.748Z,14.70
2023-03-08T19:16:31.630Z,14.70
2023-03-08T19:19:01.076Z,14.70
2023-03-08T19:21:33.737Z,14.70
2023-03-08T19:24:01.494Z,14.70
2023-03-08T19:26:37.073Z,14.70
2023-03-08T19:29:14.488Z,14.70
2023-03-08T19:31:52.613Z,14.70
2023-03-08T19:34:21.631Z,14.70
2023-03-08T19:36:52.020Z,14.70
2023-03-08T19:39:24.941Z,14.70
2023-03-08T19:41:54.282Z,14.70
2023-03-08T19:44:23.320Z,14.70
2023-03-08T19:46:50.621Z,14.70
2023-03-08T19:49:21.399Z,14.70
2023-03-08T19:51:50.814Z,14.60
2023-03-08T19:54:18.865Z,14.60
2023-03-08T19:56:45.836Z,14.60
2023-03-08T19:59:13.196Z,14.60
2023-03-08T20:01:40.956Z,14.60
2023-03-08T20:04:09.342Z,14.50
2023-03-08T20:06:39.745Z,14.60
2023-03-08T20:09:10.383Z,14.50
2023-03-08T20:11:37.633Z,14.50
2023-03-08T20:14:05.215Z,14.50
2023-03-08T20:16:32.439Z,14.50
2023-03-08T20:18:59.600Z,14.50
2023-03-08T20:21:29.672Z,14.50
2023-03-08T20:23:57.710Z,14.50
2023-03-08T20:26:27.141Z,14.50
2023-03-08T20:28:56.137Z,14.50
2023-03-08T20:31:23.755Z,14.50
2023-03-08T20:33:51.102Z,14.50
2023-03-08T20:36:18.371Z,14.50
2023-03-08T20:38:46.723Z,14.50
2023-03-08T20:41:18.786Z,14.50
2023-03-08T20:43:47.702Z,14.50
2023-03-08T20:46:16.805Z,14.50
2023-03-08T20:48:45.585Z,14.50
2023-03-08T20:51:15.706Z,14.50
2023-03-08T20:53:43.493Z,14.40
2023-03-08T20:56:14.030Z,14.50
2023-03-08T20:58:41.877Z,14.40
2023-03-08T21:01:17.495Z,14.40
2023-03-08T21:03:47.743Z,14.40
2023-03-08T21:06:18.868Z,14.50
2023-03-08T21:08:46.584Z,14.50
2023-03-08T21:11:13.774Z,14.50
2023-03-08T21:13:42.611Z,14.50
2023-03-08T21:16:13.322Z,14.50
2023-03-08T21:18:45.832Z,14.50
2023-03-08T21:21:27.406Z,14.50
2023-03-08T21:24:04.494Z,14.50
2023-03-08T21:26:32.064Z,14.50
2023-03-08T21:29:02.324Z,14.50
2023-03-08T21:31:31.221Z,14.50
2023-03-08T21:33:58.673Z,14.50
2023-03-08T21:36:26.036Z,14.50
2023-03-08T21:38:55.601Z,14.50
2023-03-08T21:41:28.189Z,14.50
2023-03-08T21:43:55.896Z,14.50
2023-03-08T21:46:23.444Z,14.50
2023-03-08T21:48:50.403Z,14.50
2023-03-08T21:51:18.480Z,14.50
2023-03-08T21:53:45.400Z,14.50
2023-03-08T21:56:14.543Z,14.50
2023-03-08T21:58:42.268Z,14.50
2023-03-08T22:01:17.829Z,14.50
2023-03-08T22:03:44.847Z,14.50
2023-03-08T22:06:11.756Z,14.50
2023-03-08T22:08:38.700Z,14.50
2023-03-08T22:11:08.713Z,14.50
2023-03-08T22:13:36.216Z,14.50
2023-03-08T22:16:04.210Z,14.40
2023-03-08T22:18:32.312Z,14.40
2023-03-08T22:21:00.052Z,14.40
2023-03-08T22:23:27.426Z,14.30
2023-03-08T22:25:55.212Z,14.30
2023-03-08T22:28:22.276Z,14.30
2023-03-08T22:30:49.176Z,14.30
2023-03-08T22:33:19.237Z,14.20
2023-03-08T22:35:47.518Z,14.20
2023-03-08T22:38:15.196Z,14.20
2023-03-08T22:40:42.945Z,14.20
2023-03-08T22:43:10.441Z,14.30
2023-03-08T22:45:37.544Z,14.30
2023-03-08T22:48:07.296Z,14.30
2023-03-08T22:50:34.241Z,14.30
2023-03-08T22:53:01.630Z,14.30
2023-03-08T22:55:28.567Z,14.30
2023-03-08T22:57:55.495Z,14.30
2023-03-08T23:00:25.523Z,14.30
2023-03-08T23:02:56.655Z,14.30
2023-03-08T23:05:24.451Z,14.30
2023-03-08T23:07:53.385Z,14.30
2023-03-08T23:10:21.421Z,14.30
2023-03-08T23:12:48.648Z,14.30
2023-03-08T23:15:15.581Z,14.30
2023-03-08T23:17:42.506Z,14.30
2023-03-08T23:20:11.613Z,14.30
2023-03-08T23:22:38.515Z,14.30
2023-03-08T23:25:06.274Z,14.20
2023-03-08T23:27:33.436Z,14.20
2023-03-08T23:30:00.416Z,14.20
2023-03-08T23:32:30.185Z,14.20
2023-03-08T23:34:57.239Z,14.20
2023-03-08T23:37:24.201Z,14.20
2023-03-08T23:39:51.127Z,14.20
2023-03-08T23:42:18.331Z,14.10
2023-03-08T23:44:45.228Z,14.10
2023-03-08T23:47:12.155Z,14.10
2023-03-08T23:49:39.143Z,14.20
2023-03-08T23:52:06.149Z,14.10
2023-03-08T23:54:33.096Z,14.10
2023-03-08T23:57:00.060Z,14.10
2023-03-08T23:59:27.063Z,14.10
